createdAt,value
2023-02-04T00:04:45.680Z,57.75
2023-02-04T00:07:16.370Z,57.86
2023-02-04T00:09:42.849Z,57.80
2023-02-04T00:12:10.767Z,58.13
2023-02-04T00:14:37.277Z,57.95
2023-02-04T00:17:11.570Z,57.92
2023-02-04T00:19:38.393Z,58.25
2023-02-04T00:22:05.151Z,58.32
2023-02-04T00:24:31.703Z,58.33
2023-02-04T00:27:03.680Z,58.04
2023-02-04T00:29:30.320Z,58.23
2023-02-04T00:31:57.319Z,58.43
2023-02-04T00:34:24.022Z,58.33
2023-02-04T00:36:54.430Z,58.59
2023-02-04T00:39:21.042Z,58.36
2023-02-04T00:41:47.593Z,58.39
2023-02-04T00:44:14.267Z,58.80
2023-02-04T00:46:44.207Z,58.43
2023-02-04T00:49:11.091Z,58.77
2023-02-04T00:51:39.433Z,58.85
2023-02-04T00:54:07.130Z,58.78
2023-02-04T00:56:36.589Z,58.63
2023-02-04T00:59:03.618Z,58.80
2023-02-04T01:01:30.838Z,58.62
2023-02-04T01:03:57.391Z,58.67
2023-02-04T01:06:25.554Z,58.73
2023-02-04T01:08:52.544Z,58.75
2023-02-04T01:11:19.598Z,59.14
2023-02-04T01:13:46.564Z,58.73
2023-02-04T01:16:16.407Z,59.01
2023-02-04T01:18:45.259Z,58.91
2023-02-04T01:21:11.854Z,59.03
2023-02-04T01:23:38.428Z,59.00
2023-02-04T01:26:09.295Z,59.04
2023-02-04T01:28:35.826Z,58.86
2023-02-04T01:31:02.514Z,58.63
2023-02-04T01:33:29.168Z,58.87
2023-02-04T01:36:00.033Z,58.83
2023-02-04T01:38:26.616Z,58.60
2023-02-04T01:40:53.412Z,58.81
2023-02-04T01:43:23.156Z,58.92
2023-02-04T01:45:51.950Z,58.67
2023-02-04T01:48:21.467Z,58.64
2023-02-04T01:50:49.929Z,58.79
2023-02-04T01:53:20.567Z,58.96
2023-02-04T01:55:50.639Z,58.66
2023-02-04T01:58:17.603Z,58.96
2023-02-04T02:00:44.866Z,58.91
2023-02-04T02:03:12.136Z,58.73
2023-02-04T02:05:46.460Z,58.80
2023-02-04T02:08:14.043Z,58.78
2023-02-04T02:10:43.933Z,58.89
2023-02-04T02:13:13.430Z,59.09
2023-02-04T02:15:42.026Z,59.08
2023-02-04T02:18:09.558Z,59.18
2023-02-04T02:20:37.069Z,58.99
2023-02-04T02:23:11.323Z,59.33
2023-02-04T02:25:42.766Z,59.36
2023-02-04T02:28:14.945Z,59.25
2023-02-04T02:30:45.688Z,59.26
2023-02-04T02:33:17.893Z,59.24
2023-02-04T02:35:49.286Z,59.51
2023-02-04T02:38:16.928Z,59.40
2023-02-04T02:40:44.174Z,59.54
2023-02-04T02:43:17.322Z,59.77
2023-02-04T02:45:48.721Z,59.63
2023-02-04T02:48:15.416Z,59.66
2023-02-04T02:50:43.099Z,59.93
2023-02-04T02:53:14.913Z,59.99
2023-02-04T02:55:46.977Z,59.87
2023-02-04T02:58:32.606Z,59.82
2023-02-04T03:01:01.543Z,60.13
2023-02-04T03:03:33.358Z,60.26
2023-02-04T03:06:15.278Z,59.94
2023-02-04T03:08:44.826Z,60.07
2023-02-04T03:11:11.638Z,60.02
2023-02-04T03:13:39.412Z,60.19
2023-02-04T03:16:08.176Z,60.27
2023-02-04T03:18:36.381Z,60.42
2023-02-04T03:21:04.954Z,60.32
2023-02-04T03:23:33.296Z,60.39
2023-02-04T03:26:01.848Z,60.52
2023-02-04T03:28:28.432Z,60.59
2023-02-04T03:30:56.090Z,60.43
2023-02-04T03:33:31.364Z,60.33
2023-02-04T03:36:00.989Z,60.57
2023-02-04T03:38:27.991Z,60.56
2023-02-04T03:40:54.627Z,60.38
2023-02-04T03:43:21.175Z,60.35
2023-02-04T03:45:52.459Z,60.21
2023-02-04T03:48:19.042Z,60.13
2023-02-04T03:50:45.841Z,60.07
2023-02-04T03:53:13.568Z,59.98
2023-02-04T03:55:41.558Z,60.09
2023-02-04T03:58:08.136Z,59.98
2023-02-04T04:00:34.780Z,59.96
2023-02-04T04:03:01.639Z,60.18
2023-02-04T04:05:31.421Z,60.05
2023-02-04T04:07:58.243Z,60.04
2023-02-04T04:10:26.630Z,60.04
2023-02-04T04:12:53.175Z,60.07
2023-02-04T04:15:19.805Z,60.33
2023-02-04T04:17:49.837Z,60.31
2023-02-04T04:20:16.563Z,59.96
2023-02-04T04:22:43.087Z,60.14
2023-02-04T04:25:09.629Z,60.24
2023-02-04T04:27:39.409Z,59.87
2023-02-04T04:30:06.165Z,60.39
2023-02-04T04:32:32.730Z,60.14
2023-02-04T04:34:59.275Z,60.29
2023-02-04T04:37:30.122Z,60.30
2023-02-04T04:39:56.688Z,60.10
2023-02-04T04:42:23.272Z,60.26
2023-02-04T04:44:49.790Z,60.28
2023-02-04T04:47:19.464Z,60.02
2023-02-04T04:49:46.059Z,59.94
2023-02-04T04:52:12.623Z,60.04
2023-02-04T04:54:39.215Z,60.01
2023-02-04T04:57:10.225Z,60.42
2023-02-04T04:59:36.749Z,60.28
2023-02-04T05:02:03.268Z,60.41
2023-02-04T05:04:29.853Z,60.54
2023-02-04T05:07:01.012Z,60.19
2023-02-04T05:09:27.616Z,60.37
2023-02-04T05:11:54.181Z,60.47
2023-02-04T05:14:20.825Z,60.31
2023-02-04T05:16:48.626Z,60.23
2023-02-04T05:19:15.145Z,60.36
2023-02-04T05:21:41.690Z,60.27
2023-02-04T05:24:08.262Z,60.08
2023-02-04T05:26:36.634Z,60.29
2023-02-04T05:29:03.395Z,60.23
2023-02-04T05:31:30.219Z,60.21
2023-02-04T05:33:56.737Z,60.20
2023-02-04T05:36:26.357Z,60.45
2023-02-04T05:38:52.999Z,60.50
2023-02-04T05:41:19.582Z,60.34
2023-02-04T05:43:46.154Z,60.67
2023-02-04T05:46:14.522Z,60.49
2023-02-04T05:48:41.120Z,60.32
2023-02-04T05:51:07.707Z,60.54
2023-02-04T05:53:34.240Z,60.38
2023-02-04T05:56:03.710Z,60.63
2023-02-04T05:58:33.473Z,60.52
2023-02-04T06:01:01.710Z,60.43
2023-02-04T06:03:29.344Z,60.52
2023-02-04T06:05:57.605Z,60.48
2023-02-04T06:08:24.408Z,60.77
2023-02-04T06:10:51.003Z,60.59
2023-02-04T06:13:17.562Z,60.76
2023-02-04T06:15:45.336Z,60.92
2023-02-04T06:18:12.172Z,60.96
2023-02-04T06:20:38.836Z,60.62
2023-02-04T06:23:05.359Z,60.88
2023-02-04T06:25:33.577Z,60.63
2023-02-04T06:28:00.200Z,60.96
2023-02-04T06:30:26.913Z,60.70
2023-02-04T06:32:53.647Z,60.69
2023-02-04T06:35:20.220Z,60.81
2023-02-04T06:37:48.915Z,60.86
2023-02-04T06:40:15.517Z,60.56
2023-02-04T06:42:42.052Z,60.69
2023-02-04T06:45:08.865Z,60.60
2023-02-04T06:47:37.456Z,60.62
2023-02-04T06:50:04.155Z,60.94
2023-02-04T06:52:30.795Z,60.73
2023-02-04T06:54:57.350Z,60.76
2023-02-04T06:57:25.352Z,61.01
2023-02-04T06:59:51.978Z,60.82
2023-02-04T07:02:18.671Z,61.14
2023-02-04T07:04:47.487Z,61.28
2023-02-04T07:07:18.312Z,61.38
2023-02-04T07:09:44.942Z,61.25
2023-02-04T07:12:11.474Z,61.28
2023-02-04T07:14:38.069Z,61.20
2023-02-04T07:17:07.684Z,61.59
2023-02-04T07:19:35.296Z,61.53
2023-02-04T07:22:03.066Z,61.53
2023-02-04T07:24:29.652Z,61.57
2023-02-04T07:27:00.791Z,61.48
2023-02-04T07:29:28.875Z,61.78
2023-02-04T07:31:55.619Z,61.62
2023-02-04T07:34:22.372Z,61.81
2023-02-04T07:36:50.503Z,61.97
2023-02-04T07:39:17.101Z,61.83
2023-02-04T07:41:43.708Z,61.71
2023-02-04T07:44:12.423Z,61.71
2023-02-04T07:46:43.157Z,62.08
2023-02-04T07:49:09.779Z,61.75
2023-02-04T07:51:36.338Z,61.82
2023-02-04T07:54:02.921Z,61.96
2023-02-04T07:56:31.339Z,62.04
2023-02-04T07:58:57.966Z,61.83
2023-02-04T08:01:24.536Z,62.18
2023-02-04T08:03:51.168Z,62.02
2023-02-04T08:06:19.344Z,61.85
2023-02-04T08:08:45.926Z,62.31
2023-02-04T08:11:12.420Z,61.95
2023-02-04T08:13:38.936Z,62.12
2023-02-04T08:16:10.075Z,62.09
2023-02-04T08:18:38.202Z,62.05
2023-02-04T08:21:06.326Z,62.06
2023-02-04T08:23:33.387Z,61.98
2023-02-04T08:26:06.223Z,61.94
2023-02-04T08:28:33.208Z,61.94
2023-02-04T08:31:00.159Z,61.98
2023-02-04T08:33:27.089Z,62.30
2023-02-04T08:35:56.425Z,62.15
2023-02-04T08:38:23.305Z,61.90
2023-02-04T08:40:50.301Z,62.22
2023-02-04T08:43:17.011Z,61.99
2023-02-04T08:45:47.645Z,62.30
2023-02-04T08:48:14.389Z,61.89
2023-02-04T08:50:42.156Z,61.94
2023-02-04T08:53:08.812Z,62.03
2023-02-04T08:55:41.961Z,62.26
2023-02-04T08:58:08.555Z,61.96
2023-02-04T09:00:35.556Z,61.91
2023-02-04T09:03:02.484Z,61.95
2023-02-04T09:05:54.205Z,61.93
2023-02-04T09:08:20.847Z,61.93
2023-02-04T09:10:47.579Z,62.15
2023-02-04T09:13:14.508Z,62.09
2023-02-04T09:15:44.794Z,62.04
2023-02-04T09:18:16.367Z,61.77
2023-02-04T09:20:44.453Z,61.83
2023-02-04T09:23:12.399Z,61.98
2023-02-04T09:25:42.321Z,61.97
2023-02-04T09:28:12.946Z,61.84
2023-02-04T09:30:40.860Z,62.11
2023-02-04T09:33:09.502Z,61.93
2023-02-04T09:36:01.653Z,62.15
2023-02-04T09:38:28.854Z,62.16
2023-02-04T09:41:00.037Z,62.16
2023-02-04T09:43:29.932Z,61.86
2023-02-04T09:45:59.253Z,61.80
2023-02-04T09:48:26.795Z,61.93
2023-02-04T09:51:06.650Z,62.06
2023-02-04T09:53:36.263Z,62.05
2023-02-04T09:56:06.365Z,62.01
2023-02-04T09:58:35.602Z,62.07
2023-02-04T10:01:17.023Z,61.65
2023-02-04T10:03:49.122Z,61.95
2023-02-04T10:06:23.872Z,61.78
2023-02-04T10:08:54.856Z,61.58
2023-02-04T10:11:23.841Z,61.43
2023-02-04T10:13:53.992Z,61.61
2023-02-04T10:16:31.885Z,61.51
2023-02-04T10:19:00.152Z,61.20
2023-02-04T10:21:29.442Z,61.01
2023-02-04T10:23:58.150Z,61.02
2023-02-04T10:26:34.132Z,60.74
2023-02-04T10:29:09.686Z,60.70
2023-02-04T10:31:43.467Z,60.23
2023-02-04T10:34:17.518Z,60.33
2023-02-04T10:36:52.574Z,60.06
2023-02-04T10:39:24.947Z,60.01
2023-02-04T10:41:54.071Z,60.10
2023-02-04T10:44:46.395Z,59.36
2023-02-04T10:47:31.253Z,59.33
2023-02-04T10:50:04.755Z,59.17
2023-02-04T10:52:40.015Z,58.68
2023-02-04T10:55:13.377Z,58.68
2023-02-04T10:57:46.394Z,58.72
2023-02-04T11:00:25.411Z,58.64
2023-02-04T11:03:12.447Z,58.56
2023-02-04T11:06:09.760Z,58.33
2023-02-04T11:08:38.354Z,58.10
2023-02-04T11:11:15.547Z,57.58
2023-02-04T11:13:51.001Z,57.59
2023-02-04T11:16:26.784Z,57.70
2023-02-04T11:18:56.151Z,57.77
2023-02-04T11:21:28.204Z,57.60
2023-02-04T12:58:45.161Z,52.51
2023-02-04T13:01:11.977Z,52.09
2023-02-04T13:03:38.725Z,51.65
2023-02-04T13:06:08.393Z,51.56
2023-02-04T13:08:35.156Z,51.63
2023-02-04T13:11:01.775Z,51.17
2023-02-04T13:13:28.644Z,51.40
2023-02-04T13:15:59.473Z,51.54
2023-02-04T13:18:26.202Z,51.71
2023-02-04T13:20:52.840Z,51.64
2023-02-04T13:23:19.561Z,51.22
2023-02-04T13:25:50.526Z,51.29
2023-02-04T13:28:17.477Z,50.91
2023-02-04T13:30:44.207Z,51.11
2023-02-04T13:33:10.849Z,51.07
2023-02-04T13:35:41.384Z,50.52
2023-02-04T13:38:08.086Z,51.01
2023-02-04T13:40:34.813Z,50.69
2023-02-04T13:43:01.656Z,50.50
2023-02-04T13:45:30.387Z,50.41
2023-02-04T13:47:57.752Z,50.34
2023-02-04T13:50:24.387Z,50.34
2023-02-04T13:52:50.983Z,50.22
2023-02-04T13:55:17.824Z,50.55
2023-02-04T13:57:46.100Z,50.68
2023-02-04T14:00:16.989Z,50.63
2023-02-04T14:02:43.779Z,50.36
2023-02-04T14:05:10.457Z,49.91
2023-02-04T14:07:40.398Z,49.84
2023-02-04T14:10:07.845Z,49.84
2023-02-04T14:12:34.642Z,49.67
2023-02-04T14:15:01.401Z,49.80
2023-02-04T14:17:32.522Z,49.74
2023-02-04T14:19:59.163Z,49.54
2023-02-04T14:22:25.789Z,49.58
2023-02-04T14:24:52.541Z,49.34
2023-02-04T14:27:23.307Z,49.26
2023-02-04T14:29:49.935Z,49.01
2023-02-04T14:32:16.760Z,49.38
2023-02-04T14:34:43.376Z,49.24
2023-02-04T14:37:13.196Z,49.06
2023-02-04T14:39:41.172Z,49.11
2023-02-04T14:42:07.799Z,49.44
2023-02-04T14:44:34.461Z,49.28
2023-02-04T14:47:03.124Z,49.20
2023-02-04T14:49:29.790Z,49.15
2023-02-04T14:51:56.873Z,49.30
2023-02-04T14:54:23.951Z,48.91
2023-02-04T14:56:53.373Z,49.07
2023-02-04T14:59:20.287Z,49.24
2023-02-04T15:01:46.945Z,49.14
2023-02-04T15:04:13.904Z,49.18
2023-02-04T15:06:43.512Z,49.04
2023-02-04T15:09:10.130Z,49.13
2023-02-04T15:11:36.857Z,49.27
2023-02-04T15:14:04.109Z,49.33
2023-02-04T15:16:34.051Z,49.61
2023-02-04T15:19:00.756Z,49.41
2023-02-04T15:21:27.498Z,49.80
2023-02-04T15:23:55.154Z,49.54
2023-02-04T15:26:25.085Z,49.60
2023-02-04T15:28:51.810Z,49.88
2023-02-04T15:31:18.538Z,49.91
2023-02-04T15:33:45.189Z,50.30
2023-02-04T15:36:16.160Z,49.85
2023-02-04T15:38:42.976Z,50.36
2023-02-04T15:41:09.689Z,50.22
2023-02-04T15:43:36.463Z,50.36
2023-02-04T15:46:07.357Z,50.05
2023-02-04T15:48:34.116Z,50.35
2023-02-04T15:51:00.713Z,50.03
2023-02-04T15:53:27.329Z,50.32
2023-02-04T15:55:58.026Z,50.36
2023-02-04T15:58:24.637Z,50.37
2023-02-04T16:00:51.184Z,50.09
2023-02-04T16:03:17.728Z,50.49
2023-02-04T16:05:48.263Z,50.35
2023-02-04T16:08:14.839Z,50.60
2023-02-04T16:10:41.411Z,50.46
2023-02-04T16:13:07.954Z,50.54
2023-02-04T16:15:38.518Z,50.53
2023-02-04T16:18:05.219Z,50.90
2023-02-04T16:20:31.964Z,50.86
2023-02-04T16:22:58.971Z,50.71
2023-02-04T16:25:33.291Z,50.92
2023-02-04T16:28:00.122Z,51.25
2023-02-04T16:30:26.693Z,51.32
2023-02-04T16:32:53.226Z,51.29
2023-02-04T16:35:19.786Z,51.13
2023-02-04T16:37:47.959Z,51.69
2023-02-04T16:40:16.050Z,51.21
2023-02-04T16:42:42.584Z,51.44
2023-02-04T16:45:09.458Z,51.65
2023-02-04T16:47:40.359Z,51.64
2023-02-04T16:50:07.342Z,51.47
2023-02-04T16:52:34.127Z,51.36
2023-02-04T16:55:01.066Z,51.44
2023-02-04T16:57:31.494Z,51.59
2023-02-04T16:59:58.057Z,51.38
2023-02-04T17:02:24.589Z,51.78
2023-02-04T23:27:43.757Z,58.51
2023-02-04T23:30:10.954Z,58.77
2023-02-04T23:32:37.491Z,58.80
2023-02-04T23:35:04.182Z,58.55
2023-02-04T23:37:32.578Z,58.54
2023-02-04T23:39:59.516Z,58.85
2023-02-04T23:42:26.387Z,58.88
2023-02-04T23:44:52.932Z,58.84
2023-02-04T23:47:22.624Z,59.17
2023-02-04T23:49:49.250Z,58.90
2023-02-04T23:52:16.000Z,58.93
2023-02-04T23:54:42.842Z,59.09
2023-02-04T23:57:13.589Z,59.06
2023-02-04T23:59:42.917Z,59.19
